sensor_id;sensor_type;location;lat;lon;timestamp;pressure;altitude;pressure_sealevel;temperature;humidity
27429;BME280;14881;48.092;11.574;2024-02-16T00:01:09;95407.34;;;1.34;100.00
27429;BME280;14881;48.092;11.574;2024-02-16T00:03:37;95407.91;;;1.36;100.00
27429;BME280;14881;48.092;11.574;2024-02-16T00:06:05;95403.47;;;1.42;100.00
27429;BME280;14881;48.092;11.574;2024-02-16T00:08:33;95397.06;;;1.43;100.00
27429;BME280;14881;48.092;11.574;2024-02-16T00:11:06;95397.31;;;1.41;100.00
27429;BME280;14881;48.092;11.574;2024-02-16T00:13:35;95398.84;;;1.37;100.00
27429;BME280;14881;48.092;11.574;2024-02-16T00:16:04;95395.59;;;1.35;100.00
27429;BME280;14881;48.092;11.574;2024-02-16T00:18:35;95392.56;;;1.31;100.00
27429;BME280;14881;48.092;11.574;2024-02-16T00:21:03;95385.22;;;1.27;100.00
27429;BME280;14881;48.092;11.574;2024-02-16T00:23:32;95393.94;;;1.22;100.00
27429;BME280;14881;48.092;11.574;2024-02-16T00:26:01;95393.63;;;1.19;100.00
27429;BME280;14881;48.092;11.574;2024-02-16T00:28:30;95394.22;;;1.21;100.00
27429;BME280;14881;48.092;11.574;2024-02-16T00:30:58;95396.88;;;1.21;100.00
27429;BME280;14881;48.092;11.574;2024-02-16T00:33:25;95393.41;;;1.20;100.00
27429;BME280;14881;48.092;11.574;2024-02-16T00:35:55;95395.34;;;1.25;100.00
27429;BME280;14881;48.092;11.574;2024-02-16T00:38:23;95392.91;;;1.23;100.00
27429;BME280;14881;48.092;11.574;2024-02-16T00:40:51;95395.69;;;1.28;100.00
27429;BME280;14881;48.092;11.574;2024-02-16T00:43:19;95391.28;;;1.22;100.00
27429;BME280;14881;48.092;11.574;2024-02-16T00:45:48;95393.63;;;1.19;100.00
27429;BME280;14881;48.092;11.574;2024-02-16T00:48:16;95377.69;;;1.12;100.00
27429;BME280;14881;48.092;11.574;2024-02-16T00:50:44;95381.41;;;1.11;100.00
27429;BME280;14881;48.092;11.574;2024-02-16T00:53:11;95374.66;;;1.09;100.00
27429;BME280;14881;48.092;11.574;2024-02-16T00:55:39;95376.53;;;1.08;100.00
27429;BME280;14881;48.092;11.574;2024-02-16T00:58:08;95380.47;;;1.05;100.00
27429;BME280;14881;48.092;11.574;2024-02-16T01:00:36;95377.56;;;1.07;100.00
27429;BME280;14881;48.092;11.574;2024-02-16T01:03:06;95374.31;;;1.05;100.00
27429;BME280;14881;48.092;11.574;2024-02-16T01:05:33;95374.88;;;1.07;100.00
27429;BME280;14881;48.092;11.574;2024-02-16T01:08:02;95371.97;;;1.09;100.00
27429;BME280;14881;48.092;11.574;2024-02-16T01:10:30;95380.00;;;1.09;100.00
27429;BME280;14881;48.092;11.574;2024-02-16T01:12:58;95381.41;;;1.11;100.00
27429;BME280;14881;48.092;11.574;2024-02-16T01:15:25;95373.03;;;1.08;100.00
27429;BME280;14881;48.092;11.574;2024-02-16T01:17:53;95373.03;;;1.08;100.00
27429;BME280;14881;48.092;11.574;2024-02-16T01:20:23;95372.69;;;1.16;100.00
27429;BME280;14881;48.092;11.574;2024-02-16T01:22:51;95380.94;;;1.14;100.00
27429;BME280;14881;48.092;11.574;2024-02-16T01:25:19;95385.94;;;1.22;100.00
27429;BME280;14881;48.092;11.574;2024-02-16T01:27:46;95389.19;;;1.24;100.00
27429;BME280;14881;48.092;11.574;2024-02-16T01:30:14;95381.03;;;1.31;100.00
27429;BME280;14881;48.092;11.574;2024-02-16T01:32:45;95381.50;;;1.28;100.00
27429;BME280;14881;48.092;11.574;2024-02-16T01:35:13;95386.88;;;1.28;100.00
27429;BME280;14881;48.092;11.574;2024-02-16T01:37:43;95393.84;;;1.29;100.00
27429;BME280;14881;48.092;11.574;2024-02-16T01:40:11;95387.31;;;1.25;100.00
27429;BME280;14881;48.092;11.574;2024-02-16T01:42:41;95393.50;;;1.25;100.00
27429;BME280;14881;48.092;11.574;2024-02-16T01:45:10;95381.97;;;1.25;100.00
27429;BME280;14881;48.092;11.574;2024-02-16T01:47:39;95377.22;;;1.27;100.00
27429;BME280;14881;48.092;11.574;2024-02-16T01:50:09;95373.38;;;1.34;100.00
27429;BME280;14881;48.092;11.574;2024-02-16T01:52:38;95378.13;;;1.32;100.00
27429;BME280;14881;48.092;11.574;2024-02-16T01:55:08;95373.84;;;1.31;100.00
27429;BME280;14881;48.092;11.574;2024-02-16T01:57:39;95377.31;;;1.32;100.00
27429;BME280;14881;48.092;11.574;2024-02-16T02:00:07;95380.00;;;1.32;100.00
27429;BME280;14881;48.092;11.574;2024-02-16T02:02:35;95374.88;;;1.30;100.00
27429;BME280;14881;48.092;11.574;2024-02-16T02:05:03;95379.66;;;1.28;100.00
27429;BME280;14881;48.092;11.574;2024-02-16T02:07:32;95376.16;;;1.28;100.00
27429;BME280;14881;48.092;11.574;2024-02-16T02:10:00;95367.09;;;1.29;100.00
27429;BME280;14881;48.092;11.574;2024-02-16T02:12:29;95365.81;;;1.31;100.00
27429;BME280;14881;48.092;11.574;2024-02-16T02:14:57;95362.09;;;1.32;100.00
27429;BME280;14881;48.092;11.574;2024-02-16T02:17:25;95359.84;;;1.41;100.00
27429;BME280;14881;48.092;11.574;2024-02-16T02:19:53;95361.47;;;1.42;100.00
27429;BME280;14881;48.092;11.574;2024-02-16T02:22:23;95359.16;;;1.46;100.00
27429;BME280;14881;48.092;11.574;2024-02-16T02:24:53;95355.53;;;1.52;100.00
27429;BME280;14881;48.092;11.574;2024-02-16T02:27:22;95358.28;;;1.57;100.00
27429;BME280;14881;48.092;11.574;2024-02-16T02:29:50;95357.59;;;1.61;100.00
27429;BME280;14881;48.092;11.574;2024-02-16T02:32:18;95353.63;;;1.64;100.00
27429;BME280;14881;48.092;11.574;2024-02-16T02:34:46;95356.31;;;1.64;100.00
27429;BME280;14881;48.092;11.574;2024-02-16T02:37:13;95350.94;;;1.64;100.00
27429;BME280;14881;48.092;11.574;2024-02-16T02:39:43;95351.19;;;1.62;100.00
27429;BME280;14881;48.092;11.574;2024-02-16T02:42:10;95351.19;;;1.62;100.00
27429;BME280;14881;48.092;11.574;2024-02-16T02:44:38;95353.28;;;1.60;100.00
27429;BME280;14881;48.092;11.574;2024-02-16T02:47:06;95347.94;;;1.60;100.00
27429;BME280;14881;48.092;11.574;2024-02-16T02:49:34;95348.84;;;1.66;100.00
27429;BME280;14881;48.092;11.574;2024-02-16T02:52:02;95327.53;;;1.71;100.00
27429;BME280;14881;48.092;11.574;2024-02-16T02:54:30;95340.69;;;1.72;100.00
27429;BME280;14881;48.092;11.574;2024-02-16T02:56:59;95345.31;;;1.77;100.00
27429;BME280;14881;48.092;11.574;2024-02-16T02:59:27;95347.84;;;1.84;100.00
27429;BME280;14881;48.092;11.574;2024-02-16T03:01:55;95356.31;;;1.92;100.00
27429;BME280;14881;48.092;11.574;2024-02-16T03:04:23;95362.81;;;1.96;100.00
27429;BME280;14881;48.092;11.574;2024-02-16T03:06:51;95364.22;;;1.99;100.00
27429;BME280;14881;48.092;11.574;2024-02-16T03:09:20;95361.53;;;1.99;100.00
27429;BME280;14881;48.092;11.574;2024-02-16T03:11:49;95355.72;;;2.02;100.00
27429;BME280;14881;48.092;11.574;2024-02-16T03:14:18;95352.44;;;2.00;100.00
27429;BME280;14881;48.092;11.574;2024-02-16T03:16:46;95366.66;;;2.00;100.00
27429;BME280;14881;48.092;11.574;2024-02-16T03:19:14;95360.72;;;1.98;100.00
27429;BME280;14881;48.092;11.574;2024-02-16T03:21:42;95361.53;;;1.99;100.00
27429;BME280;14881;48.092;11.574;2024-02-16T03:24:10;95356.66;;;1.96;100.00
27429;BME280;14881;48.092;11.574;2024-02-16T03:26:38;95365.41;;;1.91;100.00
27429;BME280;14881;48.092;11.574;2024-02-16T03:29:05;95362.72;;;1.91;100.00
27429;BME280;14881;48.092;11.574;2024-02-16T03:31:34;95367.84;;;1.93;100.00
27429;BME280;14881;48.092;11.574;2024-02-16T03:34:02;95368.66;;;1.93;100.00
27429;BME280;14881;48.092;11.574;2024-02-16T03:36:30;95366.78;;;1.94;100.00
27429;BME280;14881;48.092;11.574;2024-02-16T03:38:58;95365.72;;;1.95;100.00
27429;BME280;14881;48.092;11.574;2024-02-16T03:41:26;95360.38;;;1.95;100.00
27429;BME280;14881;48.092;11.574;2024-02-16T03:43:54;95368.34;;;1.90;100.00
27429;BME280;14881;48.092;11.574;2024-02-16T03:46:24;95370.19;;;1.89;100.00
27429;BME280;14881;48.092;11.574;2024-02-16T03:48:53;95369.84;;;1.86;100.00
27429;BME280;14881;48.092;11.574;2024-02-16T03:51:21;95373.00;;;1.83;100.00
27429;BME280;14881;48.092;11.574;2024-02-16T03:53:49;95385.59;;;1.82;100.00
27429;BME280;14881;48.092;11.574;2024-02-16T03:56:18;95382.91;;;1.82;100.00
27429;BME280;14881;48.092;11.574;2024-02-16T03:58:47;95382.66;;;1.84;100.00
27429;BME280;14881;48.092;11.574;2024-02-16T04:01:15;95383.03;;;1.75;100.00
27429;BME280;14881;48.092;11.574;2024-02-16T04:03:43;95382.97;;;1.70;100.00
27429;BME280;14881;48.092;11.574;2024-02-16T04:06:12;95386.22;;;1.72;100.00
27429;BME280;14881;48.092;11.574;2024-02-16T04:08:40;95388.31;;;1.70;100.00
27429;BME280;14881;48.092;11.574;2024-02-16T04:11:10;95388.78;;;1.67;100.00
27429;BME280;14881;48.092;11.574;2024-02-16T04:13:38;95389.34;;;1.69;100.00
27429;BME280;14881;48.092;11.574;2024-02-16T04:16:06;95390.16;;;1.70;100.00
27429;BME280;14881;48.092;11.574;2024-02-16T04:18:34;95388.88;;;1.72;100.00
27429;BME280;14881;48.092;11.574;2024-02-16T04:21:02;95379.88;;;1.79;100.00
27429;BME280;14881;48.092;11.574;2024-02-16T04:23:32;95382.72;;;1.72;100.00
27429;BME280;14881;48.092;11.574;2024-02-16T04:25:59;95390.03;;;1.77;100.00
27429;BME280;14881;48.092;11.574;2024-02-16T04:28:27;95393.50;;;1.77;100.00
27429;BME280;14881;48.092;11.574;2024-02-16T04:30:55;95391.06;;;1.75;100.00
27429;BME280;14881;48.092;11.574;2024-02-16T04:33:23;95396.19;;;1.89;100.00
27429;BME280;14881;48.092;11.574;2024-02-16T04:35:51;95393.25;;;1.90;100.00
27429;BME280;14881;48.092;11.574;2024-02-16T04:38:19;95390.00;;;1.88;100.00
27429;BME280;14881;48.092;11.574;2024-02-16T04:40:48;95390.47;;;1.85;100.00
27429;BME280;14881;48.092;11.574;2024-02-16T04:43:16;95390.72;;;1.84;100.00
27429;BME280;14881;48.092;11.574;2024-02-16T04:45:44;95392.69;;;1.88;100.00
27429;BME280;14881;48.092;11.574;2024-02-16T04:48:12;95391.28;;;1.86;100.00
27429;BME280;14881;48.092;11.574;2024-02-16T04:50:40;95395.06;;;2.01;100.00
27429;BME280;14881;48.092;11.574;2024-02-16T04:53:07;95392.97;;;2.03;100.00
27429;BME280;14881;48.092;11.574;2024-02-16T04:55:35;95394.59;;;2.04;100.00
27429;BME280;14881;48.092;11.574;2024-02-16T04:58:04;95392.00;;;2.09;100.00
27429;BME280;14881;48.092;11.574;2024-02-16T05:00:36;95395.59;;;2.15;100.00
27429;BME280;14881;48.092;11.574;2024-02-16T05:03:05;95389.75;;;2.18;100.00
27429;BME280;14881;48.092;11.574;2024-02-16T05:05:33;95392.78;;;2.22;100.00
27429;BME280;14881;48.092;11.574;2024-02-16T05:08:00;95386.44;;;2.28;100.00
27429;BME280;14881;48.092;11.574;2024-02-16T05:10:28;95388.75;;;2.36;100.00
27429;BME280;14881;48.092;11.574;2024-02-16T05:12:56;95389.09;;;2.39;100.00
27429;BME280;14881;48.092;11.574;2024-02-16T05:15:27;95393.94;;;2.42;100.00
27429;BME280;14881;48.092;11.574;2024-02-16T05:17:55;95395.41;;;2.50;100.00
27429;BME280;14881;48.092;11.574;2024-02-16T05:20:24;95389.44;;;2.60;100.00
27429;BME280;14881;48.092;11.574;2024-02-16T05:22:52;95397.97;;;2.57;100.00
27429;BME280;14881;48.092;11.574;2024-02-16T05:25:20;95398.09;;;2.50;100.00
27429;BME280;14881;48.092;11.574;2024-02-16T05:27:47;95399.00;;;2.56;100.00
27429;BME280;14881;48.092;11.574;2024-02-16T05:30:15;95397.97;;;2.57;100.00
27429;BME280;14881;48.092;11.574;2024-02-16T05:32:45;95397.16;;;2.56;100.00
27429;BME280;14881;48.092;11.574;2024-02-16T05:35:13;95398.25;;;2.60;100.00
27429;BME280;14881;48.092;11.574;2024-02-16T05:37:44;95393.25;;;2.64;100.00
27429;BME280;14881;48.092;11.574;2024-02-16T05:40:15;95399.19;;;2.66;100.00
27429;BME280;14881;48.092;11.574;2024-02-16T05:42:48;95384.72;;;2.67;100.00
27429;BME280;14881;48.092;11.574;2024-02-16T05:45:16;95389.03;;;2.68;100.00
27429;BME280;14881;48.092;11.574;2024-02-16T05:47:46;95392.84;;;2.72;100.00
27429;BME280;14881;48.092;11.574;2024-02-16T05:50:14;95394.72;;;2.71;100.00
27429;BME280;14881;48.092;11.574;2024-02-16T05:52:43;95394.47;;;2.73;100.00
27429;BME280;14881;48.092;11.574;2024-02-16T05:55:11;95398.78;;;2.74;100.00
27429;BME280;14881;48.092;11.574;2024-02-16T05:57:40;95399.59;;;2.74;100.00
27429;BME280;14881;48.092;11.574;2024-02-16T06:00:09;95396.41;;;2.77;100.00
27429;BME280;14881;48.092;11.574;2024-02-16T06:02:37;95403.41;;;2.78;100.00
27429;BME280;14881;48.092;11.574;2024-02-16T06:05:07;95401.28;;;2.80;100.00
27429;BME280;14881;48.092;11.574;2024-02-16T06:07:35;95407.00;;;2.84;100.00
27429;BME280;14881;48.092;11.574;2024-02-16T06:10:05;95404.31;;;2.84;100.00
27429;BME280;14881;48.092;11.574;2024-02-16T06:12:37;95410.00;;;2.88;100.00
27429;BME280;14881;48.092;11.574;2024-02-16T06:15:06;95412.44;;;2.89;100.00
27429;BME280;14881;48.092;11.574;2024-02-16T06:17:34;95407.41;;;2.93;100.00
27429;BME280;14881;48.092;11.574;2024-02-16T06:20:04;95406.34;;;2.94;100.00
27429;BME280;14881;48.092;11.574;2024-02-16T06:22:34;95406.41;;;2.99;100.00
27429;BME280;14881;48.092;11.574;2024-02-16T06:25:02;95414.56;;;3.04;100.00
27429;BME280;14881;48.092;11.574;2024-02-16T06:27:30;95415.75;;;3.13;100.00
27429;BME280;14881;48.092;11.574;2024-02-16T06:29:59;95413.66;;;3.15;100.00
27429;BME280;14881;48.092;11.574;2024-02-16T06:32:27;95426.19;;;3.26;100.00
27429;BME280;14881;48.092;11.574;2024-02-16T06:34:55;95424.59;;;3.30;100.00
27429;BME280;14881;48.092;11.574;2024-02-16T06:37:23;95433.00;;;3.34;100.00
27429;BME280;14881;48.092;11.574;2024-02-16T06:39:52;95439.81;;;3.41;100.00
27429;BME280;14881;48.092;11.574;2024-02-16T06:42:20;95444.53;;;3.51;100.00
27429;BME280;14881;48.092;11.574;2024-02-16T06:44:48;95461.91;;;3.65;100.00
27429;BME280;14881;48.092;11.574;2024-02-16T06:47:16;95453.44;;;3.73;100.00
27429;BME280;14881;48.092;11.574;2024-02-16T06:49:45;95466.50;;;3.87;100.00
27429;BME280;14881;48.092;11.574;2024-02-16T06:52:14;95468.22;;;3.93;100.00
27429;BME280;14881;48.092;11.574;2024-02-16T06:54:43;95465.31;;;3.99;100.00
27429;BME280;14881;48.092;11.574;2024-02-16T06:57:13;95466.78;;;4.07;100.00
27429;BME280;14881;48.092;11.574;2024-02-16T06:59:41;95472.25;;;4.17;100.00
27429;BME280;14881;48.092;11.574;2024-02-16T07:02:09;95472.91;;;4.24;100.00
27429;BME280;14881;48.092;11.574;2024-02-16T07:04:39;95477.53;;;4.29;100.00
27429;BME280;14881;48.092;11.574;2024-02-16T07:07:07;95478.69;;;4.38;100.00
27429;BME280;14881;48.092;11.574;2024-02-16T07:09:35;95478.53;;;4.44;100.00
27429;BME280;14881;48.092;11.574;2024-02-16T07:12:04;95480.88;;;4.63;100.00
27429;BME280;14881;48.092;11.574;2024-02-16T07:14:34;95480.13;;;4.67;100.00
27429;BME280;14881;48.092;11.574;2024-02-16T07:17:02;95482.41;;;4.80;100.00
27429;BME280;14881;48.092;11.574;2024-02-16T07:19:30;95490.69;;;5.01;100.00
27429;BME280;14881;48.092;11.574;2024-02-16T07:21:58;95480.75;;;5.06;100.00
27429;BME280;14881;48.092;11.574;2024-02-16T07:24:26;95488.63;;;5.13;100.00
27429;BME280;14881;48.092;11.574;2024-02-16T07:26:54;95485.78;;;5.24;100.00
27429;BME280;14881;48.092;11.574;2024-02-16T07:29:22;95489.13;;;5.37;100.00
27429;BME280;14881;48.092;11.574;2024-02-16T07:31:51;95490.00;;;5.47;100.00
27429;BME280;14881;48.092;11.574;2024-02-16T07:34:19;95491.44;;;5.60;100.00
27429;BME280;14881;48.092;11.574;2024-02-16T07:36:47;95486.44;;;5.79;100.00
27429;BME280;14881;48.092;11.574;2024-02-16T07:39:15;95485.97;;;5.87;100.00
27429;BME280;14881;48.092;11.574;2024-02-16T07:41:43;95487.69;;;5.98;100.00
27429;BME280;14881;48.092;11.574;2024-02-16T07:44:10;95491.78;;;6.11;100.00
27429;BME280;14881;48.092;11.574;2024-02-16T07:46:41;95492.41;;;6.23;100.00
27429;BME280;14881;48.092;11.574;2024-02-16T07:49:13;95492.47;;;6.38;100.00
27429;BME280;14881;48.092;11.574;2024-02-16T07:51:41;95494.16;;;6.54;100.00
27429;BME280;14881;48.092;11.574;2024-02-16T07:54:09;95496.09;;;6.69;100.00
27429;BME280;14881;48.092;11.574;2024-02-16T07:56:37;95488.84;;;6.85;100.00
27429;BME280;14881;48.092;11.574;2024-02-16T07:59:05;95490.78;;;6.99;100.00
27429;BME280;14881;48.092;11.574;2024-02-16T08:01:33;95488.34;;;7.13;100.00
27429;BME280;14881;48.092;11.574;2024-02-16T08:04:00;95485.13;;;7.31;100.00
27429;BME280;14881;48.092;11.574;2024-02-16T08:06:33;95478.38;;;7.49;100.00
27429;BME280;14881;48.092;11.574;2024-02-16T08:09:02;95473.50;;;7.72;100.00
27429;BME280;14881;48.092;11.574;2024-02-16T08:11:30;95474.31;;;7.92;100.00
27429;BME280;14881;48.092;11.574;2024-02-16T08:13:59;95468.31;;;8.11;100.00
27429;BME280;14881;48.092;11.574;2024-02-16T08:16:27;95473.13;;;8.24;100.00
27429;BME280;14881;48.092;11.574;2024-02-16T08:18:55;95480.16;;;8.40;100.00
27429;BME280;14881;48.092;11.574;2024-02-16T08:21:23;95475.50;;;8.51;100.00
27429;BME280;14881;48.092;11.574;2024-02-16T08:23:52;95470.53;;;8.68;100.00
27429;BME280;14881;48.092;11.574;2024-02-16T08:26:20;95479.41;;;8.84;100.00
27429;BME280;14881;48.092;11.574;2024-02-16T08:28:48;95477.44;;;8.99;100.00
27429;BME280;14881;48.092;11.574;2024-02-16T08:31:17;95478.44;;;9.14;100.00
27429;BME280;14881;48.092;11.574;2024-02-16T08:33:45;95479.13;;;9.29;100.00
27429;BME280;14881;48.092;11.574;2024-02-16T08:36:14;95469.25;;;9.43;100.00
27429;BME280;14881;48.092;11.574;2024-02-16T08:38:42;95472.91;;;9.63;100.00
27429;BME280;14881;48.092;11.574;2024-02-16T08:41:11;95467.06;;;9.80;100.00
27429;BME280;14881;48.092;11.574;2024-02-16T08:43:39;95469.31;;;10.01;100.00
27429;BME280;14881;48.092;11.574;2024-02-16T08:46:07;95471.81;;;10.22;100.00
27429;BME280;14881;48.092;11.574;2024-02-16T08:48:35;95468.34;;;10.40;100.00
27429;BME280;14881;48.092;11.574;2024-02-16T08:51:04;95465.97;;;10.57;100.00
27429;BME280;14881;48.092;11.574;2024-02-16T08:53:32;95468.22;;;10.74;100.00
27429;BME280;14881;48.092;11.574;2024-02-16T08:56:00;95468.84;;;10.90;100.00
27429;BME280;14881;48.092;11.574;2024-02-16T08:58:30;95467.75;;;11.09;100.00
27429;BME280;14881;48.092;11.574;2024-02-16T09:00:57;95459.97;;;11.22;100.00
27429;BME280;14881;48.092;11.574;2024-02-16T09:03:25;95460.38;;;11.29;100.00
27429;BME280;14881;48.092;11.574;2024-02-16T09:05:54;95463.69;;;11.44;100.00
27429;BME280;14881;48.092;11.574;2024-02-16T09:08:21;95468.47;;;11.52;100.00
27429;BME280;14881;48.092;11.574;2024-02-16T09:10:49;95470.13;;;11.67;100.00
27429;BME280;14881;48.092;11.574;2024-02-16T09:13:17;95471.13;;;11.76;100.00
27429;BME280;14881;48.092;11.574;2024-02-16T09:16:00;95463.06;;;11.85;100.00
27429;BME280;14881;48.092;11.574;2024-02-16T09:18:28;95468.66;;;11.94;100.00
27429;BME280;14881;48.092;11.574;2024-02-16T09:20:56;95464.91;;;12.03;100.00
27429;BME280;14881;48.092;11.574;2024-02-16T09:23:24;95467.56;;;12.08;100.00
27429;BME280;14881;48.092;11.574;2024-02-16T09:25:55;95473.22;;;12.12;100.00
27429;BME280;14881;48.092;11.574;2024-02-16T09:28:23;95472.81;;;12.18;100.00
27429;BME280;14881;48.092;11.574;2024-02-16T09:30:56;95474.06;;;12.26;100.00
27429;BME280;14881;48.092;11.574;2024-02-16T09:33:27;95465.97;;;12.35;100.00
27429;BME280;14881;48.092;11.574;2024-02-16T09:35:57;95474.34;;;12.38;100.00
27429;BME280;14881;48.092;11.574;2024-02-16T09:38:25;95472.44;;;12.39;100.00
27429;BME280;14881;48.092;11.574;2024-02-16T09:40:53;95466.19;;;12.38;100.00
27429;BME280;14881;48.092;11.574;2024-02-16T09:43:27;95459.25;;;12.46;100.00
27429;BME280;14881;48.092;11.574;2024-02-16T09:45:55;95467.09;;;12.47;100.00
27429;BME280;14881;48.092;11.574;2024-02-16T09:48:26;95475.59;;;12.60;100.00
27429;BME280;14881;48.092;11.574;2024-02-16T09:50:57;95469.19;;;12.64;100.00
27429;BME280;14881;48.092;11.574;2024-02-16T09:53:28;95466.38;;;12.69;100.00
27429;BME280;14881;48.092;11.574;2024-02-16T09:55:56;95464.16;;;12.71;100.00
27429;BME280;14881;48.092;11.574;2024-02-16T09:58:24;95471.22;;;12.72;100.00
27429;BME280;14881;48.092;11.574;2024-02-16T10:00:53;95469.22;;;12.78;100.00
27429;BME280;14881;48.092;11.574;2024-02-16T10:03:23;95468.44;;;13.27;100.00
27429;BME280;14881;48.092;11.574;2024-02-16T10:05:51;95466.88;;;13.93;100.00
27429;BME280;14881;48.092;11.574;2024-02-16T10:08:21;95465.38;;;14.40;100.00
27429;BME280;14881;48.092;11.574;2024-02-16T10:11:00;95462.38;;;14.98;100.00
27429;BME280;14881;48.092;11.574;2024-02-16T10:13:28;95462.41;;;15.24;100.00
27429;BME280;14881;48.092;11.574;2024-02-16T10:16:04;95454.56;;;16.00;100.00
27429;BME280;14881;48.092;11.574;2024-02-16T10:18:32;95453.78;;;16.47;100.00
27429;BME280;14881;48.092;11.574;2024-02-16T10:21:00;95456.81;;;17.00;100.00
27429;BME280;14881;48.092;11.574;2024-02-16T10:23:33;95447.91;;;17.95;100.00
27429;BME280;14881;48.092;11.574;2024-02-16T10:26:09;95444.28;;;18.49;89.96
27429;BME280;14881;48.092;11.574;2024-02-16T10:28:37;95444.91;;;18.78;93.29
27429;BME280;14881;48.092;11.574;2024-02-16T10:31:06;95443.06;;;19.19;86.32
27429;BME280;14881;48.092;11.574;2024-02-16T10:33:34;95446.94;;;19.55;88.55
27429;BME280;14881;48.092;11.574;2024-02-16T10:36:03;95449.88;;;20.02;87.19
27429;BME280;14881;48.092;11.574;2024-02-16T10:38:34;95442.75;;;19.73;72.39
27429;BME280;14881;48.092;11.574;2024-02-16T10:41:03;95442.84;;;19.76;66.00
27429;BME280;14881;48.092;11.574;2024-02-16T10:43:32;95436.28;;;19.81;68.97
27429;BME280;14881;48.092;11.574;2024-02-16T10:46:00;95445.22;;;19.50;60.35
27429;BME280;14881;48.092;11.574;2024-02-16T10:48:29;95447.91;;;19.74;64.78
27429;BME280;14881;48.092;11.574;2024-02-16T10:50:57;95451.38;;;19.47;59.27
27429;BME280;14881;48.092;11.574;2024-02-16T10:53:26;95440.06;;;19.24;61.11
27429;BME280;14881;48.092;11.574;2024-02-16T10:56:00;95444.66;;;19.32;62.28
27429;BME280;14881;48.092;11.574;2024-02-16T10:58:28;95449.31;;;19.68;62.27
27429;BME280;14881;48.092;11.574;2024-02-16T11:00:57;95445.72;;;19.80;64.50
27429;BME280;14881;48.092;11.574;2024-02-16T11:03:26;95446.41;;;19.77;62.94
27429;BME280;14881;48.092;11.574;2024-02-16T11:05:55;95441.78;;;19.81;64.10
27429;BME280;14881;48.092;11.574;2024-02-16T11:08:25;95444.06;;;20.19;63.30
27429;BME280;14881;48.092;11.574;2024-02-16T11:10:56;95436.94;;;19.90;61.37
27429;BME280;14881;48.092;11.574;2024-02-16T11:13:26;95439.22;;;19.48;63.76
27429;BME280;14881;48.092;11.574;2024-02-16T11:15:58;95438.19;;;19.40;66.56
27429;BME280;14881;48.092;11.574;2024-02-16T11:18:27;95438.34;;;19.20;67.17
27429;BME280;14881;48.092;11.574;2024-02-16T11:21:00;95427.88;;;19.50;66.37
27429;BME280;14881;48.092;11.574;2024-02-16T11:23:28;95427.06;;;19.49;65.37
27429;BME280;14881;48.092;11.574;2024-02-16T11:26:00;95421.91;;;19.88;64.38
27429;BME280;14881;48.092;11.574;2024-02-16T11:28:31;95432.03;;;19.84;65.44
27429;BME280;14881;48.092;11.574;2024-02-16T11:30:59;95432.59;;;19.89;65.55
27429;BME280;14881;48.092;11.574;2024-02-16T11:33:28;95423.16;;;19.90;66.90
27429;BME280;14881;48.092;11.574;2024-02-16T11:35:59;95425.13;;;19.50;65.80
27429;BME280;14881;48.092;11.574;2024-02-16T11:38:30;95424.75;;;19.63;67.09
27429;BME280;14881;48.092;11.574;2024-02-16T11:40:59;95417.16;;;19.60;68.71
27429;BME280;14881;48.092;11.574;2024-02-16T11:43:27;95417.84;;;19.97;67.91
27429;BME280;14881;48.092;11.574;2024-02-16T11:45:56;95421.63;;;20.21;65.12
27429;BME280;14881;48.092;11.574;2024-02-16T11:48:25;95420.19;;;20.27;68.96
27429;BME280;14881;48.092;11.574;2024-02-16T11:51:00;95424.00;;;20.06;66.08
27429;BME280;14881;48.092;11.574;2024-02-16T11:53:28;95412.53;;;20.04;65.83
27429;BME280;14881;48.092;11.574;2024-02-16T11:55:57;95415.69;;;20.34;66.81
27429;BME280;14881;48.092;11.574;2024-02-16T11:58:27;95416.28;;;20.71;66.81
27429;BME280;14881;48.092;11.574;2024-02-16T12:00:56;95412.09;;;20.77;64.78
27429;BME280;14881;48.092;11.574;2024-02-16T12:03:29;95409.50;;;20.69;63.66
27429;BME280;14881;48.092;11.574;2024-02-16T12:05:58;95416.50;;;21.13;66.00
27429;BME280;14881;48.092;11.574;2024-02-16T12:08:32;95410.84;;;20.91;62.25
27429;BME280;14881;48.092;11.574;2024-02-16T12:11:00;95411.00;;;20.98;61.41
27429;BME280;14881;48.092;11.574;2024-02-16T12:13:29;95409.69;;;20.92;62.18
27429;BME280;14881;48.092;11.574;2024-02-16T12:15:58;95407.53;;;20.69;62.72
27429;BME280;14881;48.092;11.574;2024-02-16T12:18:27;95405.84;;;20.49;63.12
27429;BME280;14881;48.092;11.574;2024-02-16T12:20:59;95419.91;;;20.00;64.97
27429;BME280;14881;48.092;11.574;2024-02-16T12:23:28;95415.25;;;19.89;68.53
27429;BME280;14881;48.092;11.574;2024-02-16T12:25:57;95423.09;;;20.02;69.28
27429;BME280;14881;48.092;11.574;2024-02-16T12:28:26;95412.00;;;20.42;67.80
27429;BME280;14881;48.092;11.574;2024-02-16T12:30:55;95414.22;;;20.53;66.71
27429;BME280;14881;48.092;11.574;2024-02-16T12:33:28;95419.41;;;20.70;67.62
27429;BME280;14881;48.092;11.574;2024-02-16T12:35:56;95414.41;;;20.75;67.46
27429;BME280;14881;48.092;11.574;2024-02-16T12:38:24;95414.84;;;20.62;69.71
27429;BME280;14881;48.092;11.574;2024-02-16T12:40:52;95415.91;;;20.89;69.45
27429;BME280;14881;48.092;11.574;2024-02-16T12:43:19;95416.97;;;20.84;70.36
27429;BME280;14881;48.092;11.574;2024-02-16T12:45:47;95418.84;;;20.64;71.49
27429;BME280;14881;48.092;11.574;2024-02-16T12:48:15;95428.56;;;20.42;72.89
27429;BME280;14881;48.092;11.574;2024-02-16T12:50:45;95418.13;;;19.80;73.85
27429;BME280;14881;48.092;11.574;2024-02-16T12:53:13;95413.66;;;19.75;76.52
27429;BME280;14881;48.092;11.574;2024-02-16T12:55:41;95420.59;;;19.69;77.74